createdAt,value
2018-02-19T00:00:16.775Z,17.50
2018-02-19T00:02:43.780Z,18.27
2018-02-19T00:05:10.083Z,19.57
2018-02-19T00:07:36.371Z,18.57
2018-02-19T00:10:02.644Z,18.70
2018-02-19T00:12:28.917Z,19.17
2018-02-19T00:14:55.170Z,18.87
2018-02-19T00:17:21.412Z,19.63
2018-02-19T00:19:47.652Z,18.10
2018-02-19T00:22:13.916Z,21.20
2018-02-19T00:24:40.924Z,17.87
2018-02-19T00:27:07.161Z,17.30
2018-02-19T00:29:33.461Z,17.80
2018-02-19T00:31:59.704Z,16.97
2018-02-19T00:34:25.980Z,17.63
2018-02-19T00:36:52.965Z,16.70
2018-02-19T00:39:19.227Z,19.70
2018-02-19T00:41:45.524Z,19.30
2018-02-19T00:44:11.779Z,18.20
2018-02-19T00:46:38.029Z,17.00
2018-02-19T00:49:04.283Z,17.07
2018-02-19T00:51:30.532Z,16.07
2018-02-19T00:53:56.813Z,18.20
2018-02-19T00:56:23.031Z,17.60
2018-02-19T00:58:49.306Z,17.47
2018-02-19T01:01:15.841Z,17.93
2018-02-19T01:03:42.173Z,17.73
2018-02-19T01:06:08.397Z,16.30
2018-02-19T01:08:34.659Z,17.47
2018-02-19T01:11:00.929Z,18.60
2018-02-19T01:13:27.217Z,18.93
2018-02-19T01:16:19.457Z,16.43
2018-02-19T01:18:46.367Z,17.27
2018-02-19T01:21:13.383Z,16.87
2018-02-19T01:23:39.641Z,15.50
2018-02-19T01:26:06.652Z,18.43
2018-02-19T01:28:32.912Z,17.97
2018-02-19T01:30:59.938Z,17.00
2018-02-19T01:33:26.251Z,16.47
2018-02-19T01:35:53.408Z,16.33
2018-02-19T01:38:19.680Z,15.90
2018-02-19T01:40:45.939Z,16.17
2018-02-19T01:43:12.234Z,15.07
2018-02-19T01:45:39.240Z,16.13
2018-02-19T01:48:05.493Z,16.80
2018-02-19T01:50:31.799Z,16.53
2018-02-19T01:52:58.089Z,17.43
2018-02-19T01:55:24.361Z,16.53
2018-02-19T01:57:50.647Z,15.60
2018-02-19T02:00:16.914Z,16.83
2018-02-19T02:02:43.208Z,16.00
2018-02-19T02:05:09.468Z,17.50
2018-02-19T02:07:35.733Z,15.93
2018-02-19T02:10:01.989Z,16.57
2018-02-19T02:12:28.267Z,15.33
2018-02-19T02:14:54.512Z,15.57
2018-02-19T02:17:20.747Z,16.60
2018-02-19T02:19:47.015Z,15.97
2018-02-19T02:22:13.281Z,15.60
2018-02-19T02:24:39.533Z,17.30
2018-02-19T02:27:05.804Z,15.77
2018-02-19T02:29:32.100Z,18.27
2018-02-19T02:31:58.329Z,16.83
2018-02-19T02:34:24.586Z,17.50
2018-02-19T02:36:50.840Z,17.57
2018-02-19T02:39:17.094Z,16.80
2018-02-19T02:41:44.062Z,16.03
2018-02-19T02:44:11.061Z,17.47
2018-02-19T02:46:38.313Z,18.70
2018-02-19T02:49:04.628Z,17.23
2018-02-19T02:51:30.866Z,17.07
2018-02-19T02:53:57.201Z,16.50
2018-02-19T02:56:23.472Z,17.23
2018-02-19T02:58:49.820Z,18.77
2018-02-19T03:01:16.853Z,17.17
2018-02-19T03:03:43.173Z,21.20
2018-02-19T03:06:09.483Z,19.57
2018-02-19T03:08:35.719Z,17.57
2018-02-19T03:11:01.989Z,17.80
2018-02-19T03:13:29.014Z,18.97
2018-02-19T03:15:55.246Z,18.50
2018-02-19T03:18:21.527Z,19.27
2018-02-19T03:20:47.782Z,19.43
2018-02-19T03:23:14.088Z,20.47
2018-02-19T03:25:40.335Z,19.27
2018-02-19T03:28:06.649Z,19.13
2018-02-19T03:30:32.910Z,18.93
2018-02-19T03:32:59.169Z,19.23
2018-02-19T03:35:25.469Z,19.90
2018-02-19T03:37:51.762Z,19.60
2018-02-19T03:40:18.020Z,21.60
2018-02-19T03:42:44.287Z,19.00
2018-02-19T03:45:10.565Z,20.67
2018-02-19T03:47:36.839Z,19.07
2018-02-19T03:50:03.131Z,19.47
2018-02-19T03:52:29.408Z,18.80
2018-02-19T03:54:55.688Z,18.33
2018-02-19T03:57:21.981Z,17.27
2018-02-19T03:59:48.974Z,18.70
2018-02-19T04:02:15.303Z,18.13
2018-02-19T04:04:41.549Z,19.67
2018-02-19T04:07:07.782Z,18.07
2018-02-19T04:09:34.064Z,18.97
2018-02-19T04:12:00.294Z,18.00
2018-02-19T04:17:05.465Z,22.10
2018-02-19T04:19:31.810Z,18.70
2018-02-19T04:21:58.127Z,20.13
2018-02-19T04:24:24.455Z,19.53
2018-02-19T04:26:50.834Z,18.97
2018-02-19T04:29:17.115Z,18.80
2018-02-19T04:31:43.469Z,18.40
2018-02-19T04:34:09.783Z,19.57
2018-02-19T04:36:36.033Z,18.10
2018-02-19T04:39:03.041Z,18.70
2018-02-19T04:41:30.032Z,19.80
2018-02-19T04:43:56.305Z,18.77
2018-02-19T04:46:38.290Z,17.90
2018-02-19T04:49:04.548Z,19.60
2018-02-19T04:51:30.874Z,19.27
2018-02-19T04:53:57.119Z,18.53
2018-02-19T04:56:30.379Z,20.30
2018-02-19T04:58:57.389Z,19.37
2018-02-19T05:01:23.676Z,18.57
2018-02-19T05:03:50.491Z,21.33
2018-02-19T05:06:17.503Z,19.70
2018-02-19T05:08:43.789Z,19.87
2018-02-19T05:11:10.834Z,18.60
2018-02-19T05:13:37.868Z,18.93
2018-02-19T05:16:04.128Z,17.03
2018-02-19T05:18:30.429Z,17.67
2018-02-19T05:20:56.694Z,19.10
2018-02-19T05:23:22.999Z,17.40
2018-02-19T05:25:50.016Z,18.03
2018-02-19T05:28:16.303Z,19.07
2018-02-19T05:30:42.578Z,18.40
2018-02-19T05:33:08.843Z,19.03
2018-02-19T05:35:35.904Z,19.37
2018-02-19T05:38:02.241Z,19.43
2018-02-19T05:40:28.561Z,19.60
2018-02-19T05:42:54.873Z,18.30
2018-02-19T05:45:21.917Z,18.43
2018-02-19T05:47:48.949Z,19.93
2018-02-19T05:50:15.203Z,18.10
2018-02-19T05:52:42.208Z,18.80
2018-02-19T05:55:08.482Z,17.17
2018-02-19T05:57:35.485Z,16.77
2018-02-19T06:00:01.742Z,18.23
2018-02-19T06:02:28.002Z,19.73
2018-02-19T06:04:54.256Z,19.80
2018-02-19T06:07:20.504Z,18.77
2018-02-19T06:09:46.788Z,18.30
2018-02-19T06:12:13.054Z,19.20
2018-02-19T06:14:40.078Z,17.30
2018-02-19T06:17:06.349Z,17.73
2018-02-19T06:19:39.499Z,19.20
2018-02-19T06:22:05.819Z,19.00
2018-02-19T06:24:32.126Z,19.30
2018-02-19T06:26:59.167Z,19.10
2018-02-19T06:29:26.173Z,18.90
2018-02-19T06:31:52.448Z,18.77
2018-02-19T06:34:19.444Z,19.00
2018-02-19T06:36:45.683Z,19.70
2018-02-19T06:39:12.012Z,17.87
2018-02-19T06:41:38.282Z,18.73
2018-02-19T06:44:04.561Z,19.37
2018-02-19T06:46:30.844Z,18.03
2018-02-19T06:48:57.993Z,18.47
2018-02-19T06:51:24.318Z,18.00
2018-02-19T06:53:50.581Z,19.93
2018-02-19T06:56:16.870Z,20.20
2018-02-19T06:58:43.099Z,19.87
2018-02-19T07:01:09.371Z,19.67
2018-02-19T07:03:35.677Z,18.43
2018-02-19T07:06:01.935Z,18.63
2018-02-19T07:08:28.223Z,19.00
2018-02-19T07:10:54.505Z,20.47
2018-02-19T07:13:20.773Z,18.37
2018-02-19T07:15:47.029Z,18.03
2018-02-19T07:18:14.034Z,18.73
2018-02-19T07:20:40.337Z,19.80
2018-02-19T07:23:06.611Z,21.70
2018-02-19T07:25:32.853Z,20.37
2018-02-19T07:27:59.126Z,22.40
2018-02-19T07:30:25.393Z,20.53
2018-02-19T07:32:51.772Z,20.23
2018-02-19T07:35:18.802Z,20.60
2018-02-19T07:37:45.854Z,20.67
2018-02-19T07:40:12.902Z,20.20
2018-02-19T07:42:55.263Z,21.70
2018-02-19T07:45:24.330Z,17.80
2018-02-19T07:47:50.832Z,22.27
2018-02-19T07:50:17.117Z,21.90
2018-02-19T07:52:43.418Z,22.13
2018-02-19T07:55:09.711Z,21.60
2018-02-19T07:57:35.961Z,21.00
2018-02-19T08:00:02.218Z,20.33
2018-02-19T08:02:28.566Z,19.83
2018-02-19T08:04:55.579Z,20.20
2018-02-19T08:07:21.850Z,19.10
2018-02-19T08:09:48.096Z,19.63
2018-02-19T08:12:14.420Z,18.87
2018-02-19T08:14:40.716Z,19.97
2018-02-19T08:17:06.996Z,21.47
2018-02-19T08:19:33.281Z,19.20
2018-02-19T08:21:59.576Z,19.83
2018-02-19T08:24:26.586Z,18.50
2018-02-19T08:26:52.878Z,22.27
2018-02-19T08:29:19.175Z,22.20
2018-02-19T08:31:45.463Z,20.67
2018-02-19T08:34:11.742Z,20.70
2018-02-19T08:36:38.783Z,19.00
2018-02-19T08:39:05.058Z,19.10
2018-02-19T08:41:31.329Z,20.33
2018-02-19T08:43:57.609Z,19.60
2018-02-19T08:46:23.905Z,19.10
2018-02-19T08:48:50.991Z,18.63
2018-02-19T08:51:17.282Z,19.07
2018-02-19T08:53:43.615Z,19.53
2018-02-19T08:56:10.628Z,21.20
2018-02-19T08:58:36.910Z,20.17
2018-02-19T09:01:03.960Z,18.93
2018-02-19T09:03:30.264Z,18.40
2018-02-19T09:05:56.548Z,17.27
2018-02-19T09:08:22.866Z,19.70
2018-02-19T09:10:49.126Z,17.27
2018-02-19T09:13:16.475Z,17.83
2018-02-19T09:15:42.819Z,17.20
2018-02-19T09:18:09.052Z,17.60
2018-02-19T09:20:35.299Z,18.20
2018-02-19T09:23:01.523Z,17.27
2018-02-19T09:25:27.894Z,17.67
2018-02-19T09:27:54.131Z,17.20
2018-02-19T09:30:20.397Z,15.97
2018-02-19T09:32:46.641Z,17.07
2018-02-19T09:35:12.902Z,15.27
2018-02-19T09:37:39.901Z,15.80
2018-02-19T09:40:06.154Z,17.17
2018-02-19T09:42:32.476Z,17.33
2018-02-19T09:44:58.739Z,16.90
2018-02-19T09:47:25.752Z,17.10
2018-02-19T09:49:52.002Z,17.30
2018-02-19T09:52:18.223Z,17.63
2018-02-19T09:54:44.466Z,17.23
2018-02-19T09:57:11.472Z,15.07
2018-02-19T09:59:37.760Z,15.67
2018-02-19T10:02:04.016Z,17.70
2018-02-19T10:04:30.282Z,18.37
2018-02-19T10:06:56.576Z,17.63
2018-02-19T10:09:22.872Z,16.87
2018-02-19T10:11:49.878Z,16.50
2018-02-19T10:14:16.138Z,16.60
2018-02-19T10:16:43.176Z,15.40
2018-02-19T10:19:09.417Z,15.37
2018-02-19T10:21:36.419Z,15.37
2018-02-19T10:24:02.731Z,15.20
2018-02-19T10:26:35.973Z,18.07
2018-02-19T10:29:02.276Z,14.80
2018-02-19T10:31:28.516Z,15.40
2018-02-19T10:33:54.768Z,17.40
2018-02-19T10:36:21.008Z,17.70
2018-02-19T10:38:48.032Z,16.63
2018-02-19T10:41:14.394Z,15.53
2018-02-19T10:43:40.718Z,17.20
2018-02-19T10:46:07.725Z,17.00
2018-02-19T10:48:34.063Z,17.30
2018-02-19T10:51:00.355Z,16.10
2018-02-19T10:53:26.615Z,15.60
2018-02-19T10:55:52.843Z,17.67
2018-02-19T10:58:19.123Z,15.60
2018-02-19T11:00:46.146Z,15.90
2018-02-19T11:03:12.477Z,16.77
2018-02-19T11:05:38.719Z,14.10
2018-02-19T11:08:05.717Z,16.10
2018-02-19T11:10:32.001Z,15.70
2018-02-19T11:12:59.032Z,16.60
2018-02-19T11:15:25.295Z,15.90
2018-02-19T11:17:51.574Z,14.90
2018-02-19T11:20:18.578Z,15.53
2018-02-19T11:22:44.905Z,15.27
2018-02-19T11:25:11.179Z,12.50
2018-02-19T11:27:37.516Z,13.90
2018-02-19T11:30:03.800Z,11.10
2018-02-19T11:32:30.040Z,9.40
2018-02-19T11:34:56.332Z,10.40
2018-02-19T11:37:23.409Z,11.20
2018-02-19T11:39:49.677Z,11.50
2018-02-19T11:42:15.956Z,12.93
2018-02-19T11:44:42.264Z,12.27
2018-02-19T11:47:09.285Z,10.70
2018-02-19T11:49:35.581Z,10.57
2018-02-19T11:52:01.869Z,10.20
2018-02-19T11:54:35.812Z,10.90
2018-02-19T11:57:02.068Z,11.73
2018-02-19T11:59:28.328Z,11.33
2018-02-19T12:01:54.584Z,11.70
2018-02-19T12:04:21.608Z,10.10
2018-02-19T12:06:47.878Z,10.50
2018-02-19T12:09:14.189Z,9.50
2018-02-19T12:11:41.216Z,10.67
2018-02-19T12:14:07.528Z,10.03
2018-02-19T12:16:33.762Z,10.87
2018-02-19T12:19:00.067Z,9.53
2018-02-19T12:21:26.333Z,11.07
2018-02-19T12:23:52.609Z,9.27
2018-02-19T12:26:18.905Z,10.13
2018-02-19T12:28:45.166Z,9.40
2018-02-19T12:31:11.418Z,10.47
2018-02-19T12:33:37.647Z,10.10
2018-02-19T12:36:03.873Z,11.27
2018-02-19T12:38:30.140Z,11.00
2018-02-19T12:40:56.415Z,9.50
2018-02-19T12:43:22.679Z,11.17
2018-02-19T12:45:48.956Z,10.27
2018-02-19T12:48:15.983Z,11.50
2018-02-19T12:50:42.262Z,10.57
2018-02-19T12:53:08.544Z,10.87
2018-02-19T12:55:34.786Z,10.60
2018-02-19T12:58:01.763Z,11.80
2018-02-19T13:00:28.110Z,12.07
2018-02-19T13:02:54.376Z,10.97
2018-02-19T13:05:20.612Z,12.70
2018-02-19T13:07:46.943Z,12.47
2018-02-19T13:10:13.208Z,11.70
2018-02-19T13:12:39.519Z,13.43
2018-02-19T13:15:06.588Z,11.50
2018-02-19T13:17:33.540Z,12.50
2018-02-19T13:19:59.797Z,14.70
2018-02-19T13:22:26.095Z,13.33
2018-02-19T13:24:52.355Z,13.00
2018-02-19T13:27:18.619Z,13.07
2018-02-19T13:29:45.732Z,13.33
2018-02-19T13:32:12.739Z,14.40
2018-02-19T13:34:39.006Z,14.40
2018-02-19T13:37:05.261Z,13.73
2018-02-19T13:39:31.537Z,13.50
2018-02-19T13:41:57.804Z,13.67
2018-02-19T13:44:24.054Z,13.60
2018-02-19T13:46:50.355Z,13.00
2018-02-19T13:49:16.626Z,14.17
2018-02-19T13:51:43.621Z,13.43
2018-02-19T13:54:09.876Z,13.63
2018-02-19T13:56:36.162Z,10.93
2018-02-19T13:59:02.428Z,12.43
2018-02-19T14:01:28.708Z,11.10
2018-02-19T14:03:55.756Z,12.23
2018-02-19T14:06:22.795Z,11.93
2018-02-19T14:08:49.833Z,12.23
2018-02-19T14:11:16.130Z,11.73
2018-02-19T14:13:42.433Z,12.80
2018-02-19T14:16:08.706Z,12.03
2018-02-19T14:18:34.977Z,10.40
2018-02-19T14:21:01.253Z,12.83
2018-02-19T14:23:27.541Z,12.27
2018-02-19T14:25:53.844Z,12.07
2018-02-19T14:28:20.861Z,13.10
2018-02-19T14:30:47.128Z,11.53
2018-02-19T14:33:13.406Z,12.60
2018-02-19T14:35:39.682Z,11.50
2018-02-19T14:38:05.934Z,12.13
2018-02-19T14:40:32.952Z,11.67
2018-02-19T14:42:59.318Z,10.80
2018-02-19T14:45:25.599Z,12.00
2018-02-19T14:47:51.844Z,13.03
2018-02-19T14:50:18.139Z,11.87
2018-02-19T14:52:44.402Z,11.47
2018-02-19T14:55:10.657Z,12.90
2018-02-19T14:57:37.680Z,12.37
2018-02-19T15:00:03.926Z,12.63
2018-02-19T15:02:30.895Z,12.23
2018-02-19T15:04:57.203Z,12.60
2018-02-19T15:07:24.181Z,12.60
2018-02-19T15:09:50.415Z,13.10
2018-02-19T15:12:16.647Z,14.00
2018-02-19T15:14:42.866Z,12.17
2018-02-19T15:17:09.141Z,14.13
2018-02-19T15:19:36.148Z,13.23
2018-02-19T15:22:02.399Z,12.90
2018-02-19T15:24:28.650Z,13.43
2018-02-19T15:26:54.898Z,12.80
2018-02-19T15:29:21.887Z,13.00
2018-02-19T15:31:48.154Z,13.03
2018-02-19T15:34:14.472Z,13.80
2018-02-19T15:36:40.735Z,14.10
2018-02-19T15:39:07.800Z,14.07
2018-02-19T15:41:34.040Z,13.90
2018-02-19T15:44:00.306Z,14.13
2018-02-19T15:46:26.599Z,13.90
2018-02-19T15:48:52.854Z,15.97
2018-02-19T15:51:19.120Z,16.20
2018-02-19T15:53:45.366Z,15.10
2018-02-19T15:56:11.611Z,13.63
2018-02-19T15:58:37.932Z,13.60
2018-02-19T16:01:04.972Z,15.20
2018-02-19T16:03:32.019Z,15.27
2018-02-19T16:05:58.994Z,14.17
2018-02-19T16:08:25.264Z,15.20
2018-02-19T16:10:51.526Z,15.33
2018-02-19T16:13:18.529Z,14.20
2018-02-19T16:15:44.778Z,13.63
2018-02-19T16:18:11.964Z,15.70
2018-02-19T16:20:38.220Z,14.37
2018-02-19T16:23:04.478Z,14.77
2018-02-19T16:25:30.760Z,13.93
2018-02-19T16:27:57.185Z,14.07
2018-02-19T16:30:24.171Z,14.00
2018-02-19T16:32:50.405Z,13.00
2018-02-19T16:35:16.651Z,16.33
2018-02-19T16:37:42.891Z,15.50
2018-02-19T16:40:09.135Z,14.80
2018-02-19T16:42:36.149Z,14.27
2018-02-19T16:45:02.415Z,14.13
2018-02-19T16:47:29.455Z,15.33
2018-02-19T16:49:55.727Z,15.10
2018-02-19T16:52:34.596Z,14.63
2018-02-19T16:55:00.961Z,15.13
2018-02-19T16:57:28.044Z,14.70
2018-02-19T16:59:54.317Z,14.27
2018-02-19T17:02:20.628Z,15.80
2018-02-19T17:04:46.941Z,14.97
2018-02-19T17:07:13.202Z,15.67
2018-02-19T17:09:39.644Z,16.57
2018-02-19T17:12:05.930Z,16.57
2018-02-19T17:14:32.184Z,16.13
2018-02-19T17:16:58.484Z,16.93
2018-02-19T17:19:24.753Z,17.73
2018-02-19T17:21:51.059Z,15.77
2018-02-19T17:24:17.323Z,13.57
2018-02-19T17:26:43.568Z,15.17
2018-02-19T17:29:10.575Z,20.37
2018-02-19T17:31:36.864Z,20.13
2018-02-19T17:34:03.130Z,18.40
2018-02-19T17:36:29.395Z,18.30
2018-02-19T17:38:56.387Z,18.60
2018-02-19T17:41:22.667Z,17.70
2018-02-19T17:43:48.894Z,15.70
2018-02-19T17:46:15.135Z,15.87
2018-02-19T17:48:42.155Z,15.10
2018-02-19T17:51:08.408Z,16.40
2018-02-19T17:53:35.561Z,16.10
2018-02-19T17:56:02.576Z,17.93
2018-02-19T17:58:28.856Z,15.83
2018-02-19T18:00:55.210Z,15.37
2018-02-19T18:03:21.484Z,22.43
2018-02-19T18:05:54.695Z,22.57
2018-02-19T18:08:21.713Z,21.13
2018-02-19T18:10:47.968Z,19.93
2018-02-19T18:13:14.976Z,17.20
2018-02-19T18:15:41.294Z,17.47
2018-02-19T18:18:07.548Z,19.00
2018-02-19T18:20:33.797Z,17.57
2018-02-19T18:23:00.070Z,17.80
2018-02-19T18:25:26.470Z,19.77
2018-02-19T18:27:53.499Z,18.03
2018-02-19T18:30:19.772Z,17.40
2018-02-19T18:32:46.036Z,17.57
2018-02-19T18:35:12.388Z,18.20
2018-02-19T18:37:39.677Z,18.93
2018-02-19T18:40:06.029Z,19.73
2018-02-19T18:42:32.479Z,18.37
2018-02-19T18:44:59.830Z,17.17
2018-02-19T18:47:26.146Z,16.90
2018-02-19T18:49:52.482Z,18.13
2018-02-19T18:52:18.750Z,19.37
2018-02-19T18:54:45.280Z,18.47
2018-02-19T18:57:11.847Z,16.87
2018-02-19T18:59:39.134Z,20.23
2018-02-19T19:02:05.565Z,19.77
2018-02-19T19:04:31.906Z,19.67
2018-02-19T19:06:58.185Z,21.77
2018-02-19T19:09:43.158Z,19.90
2018-02-19T19:12:10.174Z,18.03
2018-02-19T19:14:36.470Z,17.37
2018-02-19T19:17:02.777Z,25.17
2018-02-19T19:19:29.803Z,26.17
2018-02-19T19:21:56.100Z,23.90
2018-02-19T19:24:22.442Z,22.23
2018-02-19T19:26:48.785Z,21.37
2018-02-19T19:29:15.064Z,20.10
2018-02-19T19:31:41.348Z,22.23
2018-02-19T19:34:07.626Z,21.00
2018-02-19T19:36:33.976Z,21.70
2018-02-19T19:39:00.400Z,22.70
2018-02-19T19:41:26.670Z,23.00
2018-02-19T19:43:52.934Z,22.30
2018-02-19T19:46:20.221Z,24.33
2018-02-19T19:48:46.511Z,22.87
2018-02-19T19:51:13.518Z,21.57
2018-02-19T19:53:39.802Z,24.03
2018-02-19T19:56:06.871Z,21.90
2018-02-19T19:58:34.151Z,22.30
2018-02-19T20:01:00.468Z,21.50
2018-02-19T20:03:26.755Z,22.40
2018-02-19T20:05:53.793Z,21.33
2018-02-19T20:08:20.061Z,20.03
2018-02-19T20:10:46.390Z,19.97
2018-02-19T20:13:13.441Z,21.80
2018-02-19T20:15:39.823Z,21.53
2018-02-19T20:18:06.082Z,21.77
2018-02-19T20:20:33.148Z,19.77
2018-02-19T20:22:59.544Z,20.43
2018-02-19T20:25:25.840Z,20.40
2018-02-19T20:27:52.142Z,21.10
2018-02-19T20:30:18.458Z,22.93
2018-02-19T20:32:44.744Z,20.93
2018-02-19T20:35:11.025Z,23.00
2018-02-19T20:37:37.359Z,22.57
2018-02-19T20:40:03.639Z,23.03
2018-02-19T20:42:29.925Z,22.33
2018-02-19T20:44:56.188Z,21.00
2018-02-19T20:47:22.581Z,22.27
2018-02-19T20:49:48.848Z,23.57
2018-02-19T20:52:15.139Z,24.80
2018-02-19T20:54:41.537Z,21.17
2018-02-19T20:57:08.619Z,21.70
2018-02-19T20:59:34.945Z,21.47
2018-02-19T21:02:01.959Z,21.97
2018-02-19T21:04:28.259Z,22.17
2018-02-19T21:06:54.541Z,18.87
2018-02-19T21:09:21.549Z,21.77
2018-02-19T21:11:47.928Z,22.23
2018-02-19T21:14:14.926Z,20.50
2018-02-19T21:16:41.206Z,20.43
2018-02-19T21:19:15.255Z,21.50
2018-02-19T21:21:41.518Z,20.27
2018-02-19T21:24:07.786Z,22.50
2018-02-19T21:26:34.131Z,20.43
2018-02-19T21:29:00.546Z,21.77
2018-02-19T21:31:26.829Z,22.90
2018-02-19T21:33:53.125Z,21.90
2018-02-19T21:36:19.403Z,22.20
2018-02-19T21:38:45.796Z,21.53
2018-02-19T21:41:12.070Z,21.57
2018-02-19T21:43:38.325Z,22.17
2018-02-19T21:46:05.380Z,23.83
2018-02-19T21:48:31.638Z,22.50
2018-02-19T21:50:58.708Z,21.80
2018-02-19T21:53:24.988Z,22.37
2018-02-19T21:55:51.288Z,23.03
2018-02-19T21:58:17.544Z,23.47
2018-02-19T22:00:44.580Z,25.07
2018-02-19T22:03:11.608Z,25.73
2018-02-19T22:05:37.949Z,23.23
2018-02-19T22:08:04.213Z,25.23
2018-02-19T22:10:30.473Z,23.00
2018-02-19T22:12:56.723Z,24.60
2018-02-19T22:15:22.989Z,25.40
2018-02-19T22:17:50.003Z,25.33
2018-02-19T22:20:16.263Z,26.20
2018-02-19T22:22:43.247Z,24.17
2018-02-19T22:25:09.524Z,23.87
2018-02-19T22:27:36.553Z,24.07
2018-02-19T22:30:02.821Z,22.87
2018-02-19T22:32:29.826Z,22.30
2018-02-19T22:34:56.086Z,27.13
2018-02-19T22:37:23.133Z,24.07
2018-02-19T22:39:50.174Z,26.67
2018-02-19T22:42:17.177Z,25.53
2018-02-19T22:44:43.424Z,22.60
2018-02-19T22:47:09.725Z,24.57
2018-02-19T22:49:35.972Z,24.07
2018-02-19T22:52:02.226Z,24.30
2018-02-19T22:54:28.502Z,24.63
2018-02-19T22:56:54.745Z,25.70
2018-02-19T22:59:21.045Z,23.60
2018-02-19T23:01:48.035Z,25.10
2018-02-19T23:04:14.331Z,24.70
2018-02-19T23:06:40.595Z,24.43
2018-02-19T23:09:06.875Z,25.20
2018-02-19T23:11:33.857Z,25.40
2018-02-19T23:14:00.144Z,25.03
2018-02-19T23:16:27.135Z,26.90
2018-02-19T23:18:53.431Z,26.70
2018-02-19T23:21:20.460Z,25.20
2018-02-19T23:23:46.730Z,27.73
2018-02-19T23:26:13.008Z,27.20
2018-02-19T23:28:39.306Z,24.90
2018-02-19T23:31:05.586Z,27.03
2018-02-19T23:33:32.553Z,26.30
2018-02-19T23:35:59.638Z,24.93
2018-02-19T23:38:25.930Z,24.80
2018-02-19T23:40:52.964Z,24.07
2018-02-19T23:43:19.974Z,25.93
2018-02-19T23:45:46.225Z,28.17
2018-02-19T23:48:12.500Z,26.50
2018-02-19T23:50:38.783Z,24.80
2018-02-19T23:53:05.065Z,25.23
2018-02-19T23:55:31.343Z,25.73
2018-02-19T23:57:57.625Z,25.40
